Manhattan, Indiana
Current Conditions -  °F | °C
As of 9:55 PM on Friday 31 Oct 2014 (Local Time) from K4I7 Reporting Station
Overcast Overcast  
Wind Chill: 26°   Ceiling: 4300
Heat Index: 36°   Visibility: 10mi
Dew Point: 32°   Wind: 15mph
Humidity: 87%   Direction: 350°N
Pressure: 30.18"   Gusts: 24mph
Location:  39.6767°N, 86.9214°W
Report Text: K4I7 010155Z AUTO 35013G21KT 10SM BKN043 OVC050 02/00 A3018 RMK AO2
Loading
Personal Weather Stations






























Interactive Weather Map New forecast layout! Learn more

10-Day Weather Forecast

Advertisements
Track Severe Weather on mobile